Hartsville Municipal Airport

About
Name: Hartsville Municipal Airport
Identifier:  HVS/KHVS
Local Time:  18. Aug 00:32 EDT
Location
Flights per Day
0 flights
Distance: 272km (169mi)
Current Weather
 23 C (Humidity: 100%)
  0kt (0km/h / 0mph) from 0°
  Overcast at 500 feet (152 meter)
  16km (10 mi.)
 METAR KHVS 180355Z AUTO 00000KT 10SM OVC005 23/23 A2999 RMK AO2 LTG DSNT W

Current Flights

Departures
Number Departure To Airline
Arrivals
Number Arrival From Airline

Current Delays

Departures
N/A
Arrivals
N/A

Destinations

Top Destinations
Airport Flights
per week
Seats
per week
  Dallas (DAL) 0 - 0 0
  Decatur (DCU) 0 - 0 0
  Savannah (SAV) 0 - 0 0
  Greensboro (GSO) 0 - 0 0
  Atlanta (PDK) 0 - 0 0

Airlines & Planes

Top Airlines
Airline Flights
per Day
Seats
per Day
  Flybe Nordic 0 -
  National Airlines 0 -
NetJets 0 -
  Novair 0 -
Top Plane Types
Model Flights Seats
Embraer Phenom 300 0.0/day - 0